Time;durP1;ratioP1;P1;durP2;ratioP2;P2;SDS_P1;SDS_P2;PMS_P1;PMS_P2;Temp;Humidity;BMP_temperature;BMP_pressure;BME280_temperature;BME280_humidity;BME280_pressure;Samples;Min_cycle;Max_cycle;Signal;HPM_P1;HPM_P2
2022/07/01 00:00:48;;;;;;;2.47;1.10;;;14.40;99.90;;;;;;5089035;28;20442;-80
2022/07/01 00:03:13;;;;;;;1.50;0.70;;;14.30;99.90;;;;;;5093754;28;20611;-76
2022/07/01 00:05:39;;;;;;;1.97;0.87;;;14.40;99.90;;;;;;5093396;28;20180;-77
2022/07/01 00:08:05;;;;;;;2.47;0.90;;;14.30;99.90;;;;;;5089643;28;20234;-76
2022/07/01 00:10:31;;;;;;;1.80;1.00;;;14.20;99.90;;;;;;5089768;28;20430;-78
2022/07/01 00:12:57;;;;;;;1.83;0.77;;;14.20;99.90;;;;;;5087505;28;20192;-76
2022/07/01 00:15:23;;;;;;;1.80;0.83;;;14.20;99.90;;;;;;5079440;28;20192;-77
2022/07/01 00:17:49;;;;;;;1.97;0.90;;;14.10;99.90;;;;;;5089555;28;20442;-77
2022/07/01 00:20:15;;;;;;;3.00;1.10;;;14.20;99.90;;;;;;5090077;28;20176;-77
2022/07/01 00:22:41;;;;;;;3.40;0.90;;;14.10;99.90;;;;;;5090305;28;20461;-77
2022/07/01 00:25:07;;;;;;;1.77;0.80;;;14.10;99.90;;;;;;5084142;28;20204;-77
2022/07/01 00:27:36;;;;;;;1.73;0.90;;;14.20;99.90;;;;;;5101561;28;20208;-77
2022/07/01 00:30:02;;;;;;;3.10;0.87;;;14.10;99.90;;;;;;5091536;28;20410;-77
2022/07/01 00:32:28;;;;;;;4.40;1.17;;;14.00;99.90;;;;;;5091270;28;20427;-78
2022/07/01 00:34:53;;;;;;;2.10;0.90;;;14.00;99.90;;;;;;5085814;28;20192;-78
2022/07/01 00:37:19;;;;;;;1.60;0.67;;;14.00;99.90;;;;;;5082522;28;20176;-77
2022/07/01 00:39:45;;;;;;;2.13;0.80;;;13.90;99.90;;;;;;5091778;28;20538;-78
2022/07/01 00:42:10;;;;;;;1.47;0.73;;;13.90;99.90;;;;;;5090937;28;20283;-78
2022/07/01 00:44:36;;;;;;;1.50;0.70;;;13.90;99.90;;;;;;5090113;28;20448;-77
2022/07/01 00:47:07;;;;;;;7.10;1.13;;;14.00;99.90;;;;;;5091173;28;20180;-79
2022/07/01 00:49:35;;;;;;;2.53;0.80;;;14.00;99.90;;;;;;5089799;28;20180;-77
2022/07/01 00:52:00;;;;;;;2.10;0.80;;;14.00;99.90;;;;;;5089401;28;20445;-78
2022/07/01 00:54:27;;;;;;;1.87;0.90;;;13.90;99.90;;;;;;5087540;28;20443;-79
2022/07/01 00:56:53;;;;;;;1.80;0.73;;;13.90;99.90;;;;;;5090075;28;20230;-77
2022/07/01 00:59:19;;;;;;;5.03;1.23;;;13.90;99.90;;;;;;5090013;28;20460;-77
2022/07/01 01:01:44;;;;;;;1.83;0.70;;;13.90;99.90;;;;;;5089036;28;20414;-75
2022/07/01 01:04:10;;;;;;;1.50;0.73;;;13.90;99.90;;;;;;5090268;28;20649;-77
2022/07/01 01:06:36;;;;;;;1.30;0.60;;;13.90;99.90;;;;;;5086379;28;20200;-77
2022/07/01 01:09:03;;;;;;;1.53;0.70;;;13.90;99.90;;;;;;5088449;28;20176;-75
2022/07/01 01:11:28;;;;;;;1.40;0.80;;;13.90;99.90;;;;;;5089877;28;20192;-78
2022/07/01 01:13:54;;;;;;;1.60;0.80;;;13.90;99.90;;;;;;5090098;28;21174;-77
2022/07/01 01:16:21;;;;;;;1.20;0.50;;;13.80;99.90;;;;;;5081363;28;20189;-78
2022/07/01 01:18:47;;;;;;;1.30;0.60;;;13.70;99.90;;;;;;5079478;28;20187;-77
2022/07/01 01:21:13;;;;;;;1.30;0.50;;;13.70;99.90;;;;;;5086613;28;20423;-79
2022/07/01 01:23:39;;;;;;;1.30;0.70;;;13.60;99.90;;;;;;5086825;28;20511;-77
2022/07/01 01:26:19;;;;;;;2.50;0.70;;;13.70;99.90;;;;;;5084992;28;20193;-76
2022/07/01 01:28:44;;;;;;;1.87;0.70;;;13.70;99.90;;;;;;5090562;28;20180;-78
2022/07/01 01:31:10;;;;;;;1.80;0.70;;;13.80;99.90;;;;;;5089733;28;20925;-75
2022/07/01 01:33:37;;;;;;;2.90;0.50;;;13.80;99.90;;;;;;5090644;28;20196;-77
2022/07/01 01:36:03;;;;;;;1.77;0.73;;;13.70;99.90;;;;;;5088644;28;20521;-76
2022/07/01 01:38:29;;;;;;;3.43;0.70;;;13.70;99.90;;;;;;5090844;28;20478;-78
2022/07/01 01:40:55;;;;;;;4.70;0.90;;;13.70;99.90;;;;;;5090074;28;20425;-78
2022/07/01 01:43:21;;;;;;;1.50;0.63;;;13.60;99.90;;;;;;5090210;28;20199;-78
2022/07/01 01:45:47;;;;;;;1.60;0.70;;;13.70;99.90;;;;;;5080006;28;20514;-79
2022/07/01 01:48:12;;;;;;;1.90;0.80;;;13.60;99.90;;;;;;5086733;28;20172;-77
2022/07/01 01:50:38;;;;;;;2.50;0.90;;;13.60;99.90;;;;;;5090537;28;20426;-77
2022/07/01 01:53:04;;;;;;;1.90;0.70;;;13.60;99.90;;;;;;5088349;28;20208;-77
2022/07/01 01:55:29;;;;;;;3.40;0.60;;;13.60;99.90;;;;;;5087438;28;20607;-77
2022/07/01 01:57:55;;;;;;;2.40;0.70;;;13.60;99.90;;;;;;5089588;28;20180;-77
2022/07/01 02:00:21;;;;;;;1.40;0.60;;;13.60;99.90;;;;;;5090121;28;20214;-80
2022/07/01 02:02:46;;;;;;;2.73;0.97;;;13.50;99.90;;;;;;5089562;28;20225;-77
2022/07/01 02:05:13;;;;;;;1.47;0.60;;;13.50;99.90;;;;;;5086544;28;20211;-78
2022/07/01 02:07:39;;;;;;;1.20;0.60;;;13.50;99.90;;;;;;5089544;28;20188;-77
2022/07/01 02:10:06;;;;;;;7.63;0.73;;;13.50;99.90;;;;;;5089691;28;20442;-78
2022/07/01 02:12:32;;;;;;;1.70;0.83;;;13.50;99.90;;;;;;5075348;28;20434;-77
2022/07/01 02:14:57;;;;;;;1.53;0.70;;;13.40;99.90;;;;;;5086497;28;20438;-75
2022/07/01 02:17:24;;;;;;;1.37;0.60;;;13.40;99.90;;;;;;5087522;28;20255;-77
2022/07/01 02:19:50;;;;;;;1.60;0.70;;;13.40;99.90;;;;;;5089276;28;20180;-78
2022/07/01 02:22:15;;;;;;;1.90;0.97;;;13.40;99.90;;;;;;5088462;28;20921;-77
2022/07/01 02:24:41;;;;;;;1.87;0.80;;;13.30;99.90;;;;;;5088798;28;20180;-77
2022/07/01 02:27:07;;;;;;;2.53;0.80;;;13.20;99.90;;;;;;5078430;28;20247;-77
2022/07/01 02:29:33;;;;;;;1.40;0.77;;;13.20;99.90;;;;;;5087045;28;20602;-77
2022/07/01 02:31:58;;;;;;;3.50;1.20;;;13.20;99.90;;;;;;5088654;28;20253;-78
2022/07/01 02:34:24;;;;;;;3.23;1.20;;;13.10;99.90;;;;;;5089750;28;20176;-77
2022/07/01 02:36:49;;;;;;;2.17;1.00;;;13.10;99.90;;;;;;5083117;28;20192;-77
2022/07/01 02:39:15;;;;;;;2.03;1.07;;;13.10;99.90;;;;;;5089177;28;20180;-77
2022/07/01 02:44:25;;;;;;;2.73;1.20;;;13.10;99.90;;;;;;5087237;28;20268;-79
2022/07/01 02:46:50;;;;;;;1.43;0.77;;;13.00;99.90;;;;;;5089036;28;20510;-77
2022/07/01 02:49:16;;;;;;;1.80;0.90;;;13.10;99.90;;;;;;5089412;28;20172;-77
2022/07/01 02:51:41;;;;;;;11.03;1.63;;;13.10;99.90;;;;;;5088466;28;20176;-78
2022/07/01 02:54:07;;;;;;;2.80;1.10;;;13.10;99.90;;;;;;5084687;28;20203;-80
2022/07/01 02:56:33;;;;;;;5.00;1.00;;;13.10;99.90;;;;;;5089747;28;20278;-75
2022/07/01 02:58:58;;;;;;;4.50;1.10;;;13.00;99.90;;;;;;5089576;28;20251;-77
2022/07/01 03:01:24;;;;;;;2.30;1.10;;;13.00;99.90;;;;;;5088452;28;20194;-78
2022/07/01 03:03:50;;;;;;;2.70;0.80;;;13.00;99.90;;;;;;5084482;28;20213;-77
2022/07/01 03:06:15;;;;;;;2.47;1.00;;;13.00;99.90;;;;;;5082657;28;20208;-74
2022/07/01 03:08:41;;;;;;;2.40;0.97;;;13.00;99.90;;;;;;5092644;28;20202;-77
2022/07/01 03:11:07;;;;;;;1.80;1.13;;;13.00;99.90;;;;;;5093430;28;20199;-77
2022/07/01 03:13:32;;;;;;;2.10;1.20;;;13.00;99.90;;;;;;5090297;28;20239;-79
2022/07/01 03:15:58;;;;;;;2.03;1.20;;;13.00;99.90;;;;;;5094277;28;20184;-78
2022/07/01 03:18:24;;;;;;;5.27;1.60;;;13.00;99.90;;;;;;5094016;28;20245;-76
2022/07/01 03:20:51;;;;;;;3.37;1.70;;;13.00;99.90;;;;;;5094197;28;20641;-77
2022/07/01 03:23:17;;;;;;;2.97;1.37;;;13.00;99.90;;;;;;5093463;28;20700;-75
2022/07/01 03:25:42;;;;;;;2.20;1.37;;;13.10;99.90;;;;;;5092361;28;20418;-77
2022/07/01 03:28:08;;;;;;;3.30;1.60;;;13.10;99.90;;;;;;5093637;28;20176;-77
2022/07/01 03:30:34;;;;;;;2.27;1.40;;;13.10;99.90;;;;;;5094288;28;20180;-77
2022/07/01 03:32:59;;;;;;;2.13;1.03;;;13.20;99.90;;;;;;5092429;28;20640;-79
2022/07/01 03:35:45;;;;;;;2.50;1.50;;;13.20;99.90;;;;;;5085163;28;20216;-79
2022/07/01 03:38:11;;;;;;;9.33;1.63;;;13.30;99.90;;;;;;5094094;28;20185;-77
2022/07/01 03:40:36;;;;;;;2.10;1.27;;;13.30;99.90;;;;;;5093297;28;20419;-77
2022/07/01 03:43:03;;;;;;;3.20;1.23;;;13.30;99.90;;;;;;5090765;28;20253;-75
2022/07/01 03:45:29;;;;;;;1.80;1.17;;;13.30;99.90;;;;;;5082496;28;20200;-78
2022/07/01 03:47:54;;;;;;;1.50;0.70;;;13.30;99.90;;;;;;5091896;28;20525;-80
2022/07/01 03:50:21;;;;;;;2.30;1.47;;;13.30;99.90;;;;;;5103197;28;20187;-78
2022/07/01 03:52:47;;;;;;;4.03;1.73;;;13.20;99.90;;;;;;5095865;28;20215;-79
2022/07/01 03:55:14;;;;;;;4.07;1.40;;;13.30;99.90;;;;;;5101896;28;20822;-79
2022/07/01 03:57:39;;;;;;;3.27;1.60;;;13.30;99.90;;;;;;5099712;28;20640;-78
2022/07/01 04:00:07;;;;;;;2.90;1.37;;;13.20;99.90;;;;;;5092033;28;20983;-77
2022/07/01 04:02:32;;;;;;;3.57;1.20;;;13.20;99.90;;;;;;5105548;28;20215;-79
2022/07/01 04:04:58;;;;;;;1.70;0.80;;;13.20;99.90;;;;;;5090283;28;22486;-78
2022/07/01 04:07:24;;;;;;;2.33;1.07;;;13.20;99.90;;;;;;5092641;28;20708;-77
2022/07/01 04:09:52;;;;;;;3.70;1.40;;;13.30;99.90;;;;;;5091957;28;20770;-78
2022/07/01 04:12:18;;;;;;;2.00;1.10;;;13.30;99.90;;;;;;5091990;28;20997;-74
2022/07/01 04:14:44;;;;;;;2.63;1.13;;;13.30;99.90;;;;;;5090581;28;20899;-77
2022/07/01 04:17:10;;;;;;;4.57;1.70;;;13.30;99.90;;;;;;5092267;28;20410;-76
2022/07/01 04:19:36;;;;;;;2.83;0.97;;;13.30;99.90;;;;;;5091090;28;20842;-77
2022/07/01 04:24:47;;;;;;;2.67;1.20;;;13.40;99.90;;;;;;5091157;28;20453;-78
2022/07/01 04:27:12;;;;;;;2.33;1.00;;;13.40;99.90;;;;;;5090990;28;20435;-73
2022/07/01 04:29:38;;;;;;;1.70;0.80;;;13.30;99.90;;;;;;5090889;28;20190;-73
2022/07/01 04:32:04;;;;;;;1.40;0.60;;;13.30;99.90;;;;;;5089392;28;20208;-79
2022/07/01 04:34:29;;;;;;;1.40;0.70;;;13.30;99.90;;;;;;5082899;28;20199;-77
2022/07/01 04:36:55;;;;;;;1.83;0.73;;;13.30;99.90;;;;;;5091515;28;20192;-77
2022/07/01 04:39:21;;;;;;;1.90;1.03;;;13.20;99.90;;;;;;5090228;28;20187;-77
2022/07/01 04:41:59;;;;;;;2.30;1.10;;;13.20;99.90;;;;;;5091034;28;20426;-77
2022/07/01 04:44:26;;;;;;;2.43;0.90;;;13.20;99.90;;;;;;5079757;28;20599;-77
2022/07/01 04:46:51;;;;;;;2.13;0.80;;;13.10;99.90;;;;;;5090656;28;20414;-76
2022/07/01 04:49:17;;;;;;;1.60;0.73;;;13.00;99.90;;;;;;5091419;28;20433;-77
2022/07/01 04:51:42;;;;;;;1.90;0.80;;;13.10;99.90;;;;;;5090529;28;20185;-74
2022/07/01 04:54:08;;;;;;;1.60;0.80;;;13.10;99.90;;;;;;5089652;28;20266;-77
2022/07/01 04:56:36;;;;;;;1.50;0.70;;;13.10;99.90;;;;;;5090934;28;20185;-76
2022/07/01 04:59:02;;;;;;;1.53;0.70;;;13.20;99.90;;;;;;5089882;28;20501;-77
2022/07/01 05:01:28;;;;;;;2.03;0.83;;;13.20;99.90;;;;;;5090538;28;20429;-77
2022/07/01 05:03:55;;;;;;;1.90;0.73;;;13.20;99.90;;;;;;5084454;28;20474;-78
2022/07/01 05:06:21;;;;;;;1.53;0.70;;;13.20;99.90;;;;;;5083545;28;20207;-76
2022/07/01 05:08:46;;;;;;;12.97;1.10;;;13.10;99.90;;;;;;5089542;28;21079;-73
2022/07/01 05:11:12;;;;;;;1.40;0.50;;;13.00;99.90;;;;;;5083297;28;20243;-76
2022/07/01 05:13:37;;;;;;;1.70;0.93;;;13.00;99.90;;;;;;5077538;28;20204;-76
2022/07/01 05:16:04;;;;;;;2.37;0.80;;;13.00;99.90;;;;;;5068944;28;20185;-78
2022/07/01 05:23:58;;;;;;;1.93;0.77;;;13.10;99.90;;;;;;5084330;28;20471;-77
2022/07/01 05:26:25;;;;;;;1.63;1.03;;;13.10;99.90;;;;;;5085304;28;20515;-76
2022/07/01 05:28:52;;;;;;;2.37;0.70;;;13.20;99.90;;;;;;5092430;28;20187;-76
2022/07/01 05:31:18;;;;;;;2.70;0.67;;;13.10;99.90;;;;;;5075827;28;20510;-76
2022/07/01 05:33:43;;;;;;;1.50;0.73;;;13.10;99.90;;;;;;5077919;28;20534;-76
2022/07/01 05:36:10;;;;;;;10.63;0.97;;;13.20;99.90;;;;;;5072392;28;20189;-76
2022/07/01 05:38:36;;;;;;;1.40;0.60;;;13.20;99.90;;;;;;5069710;28;20185;-75
2022/07/01 05:41:01;;;;;;;2.37;0.70;;;13.30;99.90;;;;;;5069041;28;20449;-73
2022/07/01 05:43:27;;;;;;;1.60;0.50;;;13.30;99.90;;;;;;5070663;28;20209;-77
2022/07/01 05:45:52;;;;;;;1.77;0.60;;;13.30;99.90;;;;;;5078766;28;20192;-79
2022/07/01 05:48:18;;;;;;;1.30;0.50;;;13.30;99.90;;;;;;5090012;28;20204;-76
2022/07/01 05:50:44;;;;;;;1.30;0.60;;;13.10;99.90;;;;;;5088693;28;20622;-79
2022/07/01 05:53:09;;;;;;;5.30;0.60;;;13.10;99.90;;;;;;5082539;28;20219;-78
2022/07/01 05:55:35;;;;;;;1.63;0.70;;;13.10;99.90;;;;;;5076673;28;20206;-82
2022/07/01 05:58:01;;;;;;;1.27;0.50;;;13.10;99.90;;;;;;5069668;28;20275;-78
2022/07/01 06:00:28;;;;;;;1.40;0.70;;;13.10;99.90;;;;;;5077095;28;20191;-75
2022/07/01 06:02:54;;;;;;;1.43;0.50;;;13.10;99.90;;;;;;5067821;28;20224;-79
2022/07/01 06:05:19;;;;;;;1.60;0.60;;;13.10;99.90;;;;;;5069909;28;20411;-78
2022/07/01 06:07:45;;;;;;;1.40;0.60;;;13.00;99.90;;;;;;5069370;28;20960;-76
2022/07/01 06:10:11;;;;;;;1.30;0.70;;;13.00;99.90;;;;;;5075060;28;20193;-76
2022/07/01 06:12:38;;;;;;;1.20;0.50;;;13.00;99.90;;;;;;5067621;28;20443;-71
2022/07/01 06:15:08;;;;;;;1.20;0.40;;;13.00;99.90;;;;;;5069851;28;20184;-76
2022/07/01 06:17:35;;;;;;;1.50;0.70;;;13.10;99.90;;;;;;5069451;28;20427;-77
2022/07/01 06:20:01;;;;;;;1.20;0.50;;;13.10;99.90;;;;;;5070563;28;20427;-76
2022/07/01 06:22:26;;;;;;;1.30;0.50;;;13.00;99.90;;;;;;5083308;28;20470;-76
2022/07/01 06:24:52;;;;;;;2.63;0.50;;;13.00;99.90;;;;;;5085718;28;20988;-76
2022/07/01 06:27:18;;;;;;;1.33;0.67;;;13.10;99.90;;;;;;5085890;28;20267;-75
2022/07/01 06:29:43;;;;;;;2.30;0.80;;;13.10;99.90;;;;;;5083961;28;20561;-75
2022/07/01 06:32:09;;;;;;;1.50;0.63;;;13.10;99.90;;;;;;5082411;28;20211;-76
2022/07/01 06:34:35;;;;;;;4.73;0.70;;;13.20;99.90;;;;;;5085658;28;20601;-75
2022/07/01 06:37:01;;;;;;;1.30;0.50;;;13.10;99.90;;;;;;5078469;28;20591;-75
2022/07/01 06:39:28;;;;;;;1.67;0.60;;;13.10;99.90;;;;;;5081916;28;20422;-77
2022/07/01 06:41:54;;;;;;;1.40;0.57;;;13.10;99.90;;;;;;5080792;28;20474;-76
2022/07/01 06:44:20;;;;;;;1.50;0.70;;;13.10;99.90;;;;;;5082480;28;20486;-77
2022/07/01 06:46:46;;;;;;;1.60;0.60;;;13.00;99.90;;;;;;5081284;28;20431;-75
2022/07/01 06:49:11;;;;;;;1.40;0.60;;;13.00;99.90;;;;;;5083278;28;20487;-77
2022/07/01 06:51:37;;;;;;;3.90;0.53;;;13.00;99.90;;;;;;5076152;28;20753;-77
2022/07/01 06:54:03;;;;;;;1.50;0.60;;;13.00;99.90;;;;;;5083566;28;20199;-79
2022/07/01 06:56:29;;;;;;;4.07;0.60;;;13.00;99.90;;;;;;5080583;28;20185;-77
2022/07/01 06:58:55;;;;;;;1.30;0.57;;;13.00;99.90;;;;;;5079944;28;20431;-77
2022/07/01 07:01:21;;;;;;;1.40;0.60;;;13.00;99.90;;;;;;5082841;28;20177;-77
2022/07/01 07:03:47;;;;;;;1.50;0.60;;;12.90;99.90;;;;;;5080489;28;20470;-73
2022/07/01 07:06:13;;;;;;;1.83;0.60;;;13.00;99.90;;;;;;5086602;28;20429;-77
2022/07/01 07:08:38;;;;;;;1.83;0.70;;;13.00;99.90;;;;;;5081609;28;20181;-78
2022/07/01 07:11:04;;;;;;;1.37;0.63;;;13.00;99.90;;;;;;5087099;28;20562;-77
2022/07/01 07:13:30;;;;;;;1.50;0.60;;;13.00;99.90;;;;;;5083586;28;20203;-77
2022/07/01 07:15:56;;;;;;;1.43;0.50;;;13.00;99.90;;;;;;5088103;28;20183;-77
2022/07/01 07:18:22;;;;;;;1.40;0.50;;;13.00;99.90;;;;;;5079149;28;20816;-78
2022/07/01 07:20:47;;;;;;;2.00;0.73;;;13.00;99.90;;;;;;5088122;28;20184;-77
2022/07/01 07:23:14;;;;;;;1.30;0.60;;;13.00;99.90;;;;;;5090468;28;20236;-79
2022/07/01 07:25:39;;;;;;;4.70;0.80;;;13.00;99.90;;;;;;5088517;28;20183;-77
2022/07/01 07:28:05;;;;;;;1.20;0.50;;;13.00;99.90;;;;;;5092690;28;20418;-81
2022/07/01 07:30:31;;;;;;;5.90;0.90;;;12.90;99.90;;;;;;5080112;28;20185;-75
2022/07/01 07:32:56;;;;;;;1.30;0.50;;;12.90;99.90;;;;;;5075052;28;20222;-77
2022/07/01 07:35:22;;;;;;;1.60;0.60;;;12.90;99.90;;;;;;5075071;28;20200;-77
2022/07/01 07:37:48;;;;;;;1.30;0.60;;;12.90;99.90;;;;;;5078039;28;20184;-78
2022/07/01 07:40:18;;;;;;;2.37;0.93;;;13.00;99.90;;;;;;5079996;28;20227;-77
2022/07/01 07:42:47;;;;;;;5.37;0.83;;;13.00;99.90;;;;;;5080439;28;20219;-77
2022/07/01 07:45:14;;;;;;;1.93;0.70;;;13.00;99.90;;;;;;5080332;28;20422;-76
2022/07/01 07:47:43;;;;;;;5.20;0.80;;;12.90;99.90;;;;;;5079702;28;20510;-75
2022/07/01 07:50:09;;;;;;;1.40;0.60;;;13.00;99.90;;;;;;5081824;28;20460;-77
2022/07/01 07:52:35;;;;;;;1.47;0.50;;;13.10;99.90;;;;;;5062258;28;21178;-77
2022/07/01 07:55:02;;;;;;;1.20;0.50;;;13.00;99.90;;;;;;5081306;28;20423;-74
2022/07/01 07:57:27;;;;;;;3.43;0.83;;;13.10;99.90;;;;;;5087144;28;20212;-78
2022/07/01 07:59:53;;;;;;;1.63;0.70;;;13.00;99.90;;;;;;5087690;28;20841;-76
2022/07/01 08:02:18;;;;;;;2.17;0.60;;;13.00;99.90;;;;;;5083547;28;20549;-79
2022/07/01 08:04:44;;;;;;;1.80;0.50;;;13.00;99.90;;;;;;5084469;28;20184;-76
2022/07/01 08:07:10;;;;;;;2.90;0.70;;;13.00;99.90;;;;;;5082843;28;20661;-76
2022/07/01 08:09:35;;;;;;;3.00;0.70;;;13.00;99.90;;;;;;5086596;28;20256;-77
2022/07/01 08:12:02;;;;;;;1.97;0.87;;;13.10;99.90;;;;;;5082034;28;20181;-79
2022/07/01 08:14:28;;;;;;;3.50;0.60;;;13.10;99.90;;;;;;5087259;28;20233;-76
2022/07/01 08:16:54;;;;;;;1.67;0.60;;;13.10;99.90;;;;;;5074274;28;20423;-75
2022/07/01 08:19:19;;;;;;;1.40;0.50;;;13.20;99.90;;;;;;5073016;28;20185;-76
2022/07/01 08:21:45;;;;;;;1.30;0.50;;;13.30;99.90;;;;;;5084917;28;20173;-76
2022/07/01 08:24:11;;;;;;;1.40;0.70;;;13.40;99.90;;;;;;5075708;28;20255;-79
2022/07/01 08:26:36;;;;;;;1.30;0.50;;;13.50;99.90;;;;;;5084025;28;20305;-76
2022/07/01 08:29:03;;;;;;;1.57;0.77;;;13.40;99.90;;;;;;5077699;28;20260;-76
2022/07/01 08:31:29;;;;;;;1.77;0.77;;;13.30;99.90;;;;;;5083543;28;20649;-75
2022/07/01 08:33:55;;;;;;;1.60;0.60;;;13.30;99.90;;;;;;5087573;28;20445;-75
2022/07/01 08:36:21;;;;;;;1.50;0.60;;;13.30;99.90;;;;;;5087704;28;20430;-76
2022/07/01 08:38:48;;;;;;;2.07;0.80;;;13.30;99.90;;;;;;5083917;28;20724;-73
2022/07/01 08:41:14;;;;;;;2.17;0.60;;;13.40;99.90;;;;;;5082722;28;20605;-78
2022/07/01 08:43:40;;;;;;;4.50;0.67;;;13.40;99.90;;;;;;5074457;28;21136;-76
2022/07/01 08:46:07;;;;;;;1.57;0.80;;;13.40;99.90;;;;;;5081078;28;20422;-76
2022/07/01 08:48:33;;;;;;;1.67;0.87;;;13.40;99.90;;;;;;5075349;28;20268;-77
2022/07/01 08:51:03;;;;;;;1.50;0.73;;;13.50;99.90;;;;;;5083105;28;20406;-77
2022/07/01 08:53:30;;;;;;;1.90;0.83;;;13.40;99.90;;;;;;5083357;28;20469;-77
2022/07/01 08:58:39;;;;;;;1.70;0.63;;;13.40;99.90;;;;;;5080013;28;20402;-76
2022/07/01 09:01:17;;;;;;;1.40;0.70;;;13.30;99.90;;;;;;5085431;28;20414;-74
2022/07/01 09:03:45;;;;;;;3.63;0.60;;;13.20;99.90;;;;;;5083983;28;20284;-75
2022/07/01 09:06:31;;;;;;;1.20;0.50;;;13.10;99.90;;;;;;5087286;28;20419;-76
2022/07/01 09:09:17;;;;;;;1.33;0.70;;;13.10;99.90;;;;;;5087707;28;20802;-75
2022/07/01 09:11:54;;;;;;;2.53;0.80;;;13.10;99.90;;;;;;5082331;28;20498;-74
2022/07/01 09:14:25;;;;;;;2.33;0.90;;;13.10;99.90;;;;;;5070493;28;20419;-78
2022/07/01 09:17:00;;;;;;;1.30;0.60;;;13.20;99.90;;;;;;5083389;28;20410;-77
2022/07/01 09:19:27;;;;;;;1.50;0.60;;;13.10;99.90;;;;;;5081232;28;20418;-74
2022/07/01 09:21:56;;;;;;;1.40;0.70;;;13.10;99.90;;;;;;5079235;28;20442;-77
2022/07/01 09:24:30;;;;;;;1.60;0.70;;;13.10;99.90;;;;;;5078281;28;20471;-76
2022/07/01 09:26:57;;;;;;;1.73;0.80;;;13.10;99.90;;;;;;5082955;28;20411;-77
2022/07/01 09:29:37;;;;;;;1.53;0.80;;;13.10;99.90;;;;;;5085089;28;20904;-76
2022/07/01 09:32:06;;;;;;;1.57;0.80;;;13.20;99.90;;;;;;5085117;28;20434;-76
2022/07/01 09:34:46;;;;;;;1.90;0.83;;;13.20;99.90;;;;;;5087777;28;20445;-77
2022/07/01 09:37:16;;;;;;;1.63;0.80;;;13.20;99.90;;;;;;5089778;28;20414;-76
2022/07/01 09:39:42;;;;;;;1.30;0.60;;;13.30;99.90;;;;;;5072714;28;20481;-78
2022/07/01 09:42:08;;;;;;;1.60;0.70;;;13.40;99.90;;;;;;5071317;28;20431;-76
2022/07/01 09:44:33;;;;;;;1.43;0.63;;;13.40;99.90;;;;;;5075446;28;20688;-79
2022/07/01 09:47:01;;;;;;;2.50;0.80;;;13.40;99.90;;;;;;5073801;28;20176;-79
2022/07/01 09:49:27;;;;;;;1.50;0.40;;;13.40;99.90;;;;;;5077056;28;20255;-76
2022/07/01 09:51:52;;;;;;;1.83;0.63;;;13.50;99.90;;;;;;5074497;28;20553;-76
2022/07/01 09:54:19;;;;;;;4.93;0.80;;;13.60;99.90;;;;;;5088901;28;20187;-76
2022/07/01 09:56:45;;;;;;;1.60;0.60;;;13.70;99.90;;;;;;5075819;28;20200;-75
2022/07/01 09:59:11;;;;;;;1.20;0.50;;;13.80;99.90;;;;;;5074902;28;20445;-76
2022/07/01 10:01:38;;;;;;;1.47;0.63;;;13.90;99.90;;;;;;5083036;28;20563;-77
2022/07/01 10:04:07;;;;;;;1.50;0.70;;;14.00;99.90;;;;;;5081287;28;20971;-77
2022/07/01 10:06:56;;;;;;;1.80;0.70;;;14.10;99.90;;;;;;5079973;28;20908;-75
2022/07/01 10:09:57;;;;;;;1.40;0.60;;;14.10;99.90;;;;;;5078657;28;20414;-77
2022/07/01 10:12:40;;;;;;;1.60;0.77;;;14.00;99.90;;;;;;5085304;28;20441;-78
2022/07/01 10:15:08;;;;;;;1.83;0.60;;;14.00;99.90;;;;;;5087153;28;20437;-77
2022/07/01 10:17:42;;;;;;;1.20;0.50;;;14.10;99.90;;;;;;5087687;28;20406;-75
2022/07/01 10:20:16;;;;;;;1.60;0.67;;;14.20;99.90;;;;;;5085266;28;20954;-75
2022/07/01 10:22:43;;;;;;;1.40;0.60;;;14.20;99.90;;;;;;5086234;28;20471;-77
2022/07/01 10:25:30;;;;;;;1.63;0.50;;;14.30;99.90;;;;;;5079706;28;20515;-77
2022/07/01 10:28:25;;;;;;;1.60;0.70;;;14.40;99.90;;;;;;5087816;28;20406;-75
2022/07/01 10:31:01;;;;;;;1.40;0.60;;;14.30;99.90;;;;;;5082204;28;20446;-75
2022/07/01 10:33:33;;;;;;;2.60;0.70;;;14.40;99.90;;;;;;5074660;28;20434;-73
2022/07/01 10:36:21;;;;;;;1.30;0.60;;;14.40;99.90;;;;;;5079375;28;20442;-76
2022/07/01 10:39:06;;;;;;;1.60;0.80;;;14.40;99.90;;;;;;5082278;28;20427;-75
2022/07/01 10:41:33;;;;;;;1.50;0.50;;;14.50;99.90;;;;;;5078658;28;20466;-77
2022/07/01 10:44:03;;;;;;;1.40;0.60;;;14.70;99.90;;;;;;5085534;28;20497;-76
2022/07/01 10:46:45;;;;;;;1.50;0.70;;;14.90;99.90;;;;;;5081371;28;20445;-77
2022/07/01 10:49:15;;;;;;;1.73;0.60;;;15.10;99.90;;;;;;5086298;28;20426;-73
2022/07/01 10:51:57;;;;;;;2.00;0.53;;;15.30;99.90;;;;;;5071143;28;21207;-75
2022/07/01 10:54:43;;;;;;;1.30;0.53;;;15.30;99.90;;;;;;5075532;28;20908;-75
2022/07/01 10:57:20;;;;;;;1.50;0.60;;;15.50;99.90;;;;;;5069864;28;20457;-75
2022/07/01 11:00:00;;;;;;;1.20;0.50;;;15.60;99.90;;;;;;5078647;28;20981;-75
2022/07/01 11:02:27;;;;;;;1.20;0.50;;;15.60;99.90;;;;;;5086184;28;20518;-74
2022/07/01 11:04:57;;;;;;;1.87;0.80;;;15.70;99.90;;;;;;5085267;28;20418;-75
2022/07/01 11:07:28;;;;;;;1.30;0.50;;;15.60;99.90;;;;;;5086408;28;20418;-75
2022/07/01 11:09:55;;;;;;;1.50;0.60;;;15.40;99.90;;;;;;5087800;28;20434;-75
2022/07/01 11:12:25;;;;;;;1.50;0.60;;;15.40;99.90;;;;;;5087038;28;20438;-74
2022/07/01 11:14:51;;;;;;;1.50;0.60;;;15.40;99.90;;;;;;5088811;28;20443;-72
2022/07/01 11:17:18;;;;;;;1.97;0.60;;;15.40;99.90;;;;;;5074886;28;20957;-77
2022/07/01 11:19:57;;;;;;;2.43;0.50;;;15.40;99.90;;;;;;5077542;28;20561;-76
2022/07/01 11:22:25;;;;;;;2.27;0.93;;;15.40;99.90;;;;;;5071269;28;20457;-76
2022/07/01 11:24:52;;;;;;;1.60;0.60;;;15.40;99.90;;;;;;5076306;28;20414;-75
2022/07/01 11:27:18;;;;;;;1.73;0.70;;;15.50;99.90;;;;;;5082123;28;20421;-74
2022/07/01 11:29:44;;;;;;;3.00;0.83;;;15.50;99.90;;;;;;5087705;28;20410;-75
2022/07/01 11:32:09;;;;;;;1.40;0.50;;;15.50;99.90;;;;;;5089366;28;20220;-76
2022/07/01 11:34:37;;;;;;;1.30;0.50;;;15.60;99.90;;;;;;5075941;28;20562;-73
2022/07/01 11:40:08;;;;;;;2.30;1.00;;;15.60;99.90;;;;;;5074253;28;20433;-71
2022/07/01 11:42:35;;;;;;;2.33;0.53;;;15.60;99.90;;;;;;5072786;28;20903;-74
2022/07/01 11:45:01;;;;;;;1.63;0.97;;;15.60;99.90;;;;;;5080093;28;20408;-75
2022/07/01 11:47:28;;;;;;;2.37;0.80;;;15.40;99.90;;;;;;5085423;28;20418;-75
2022/07/01 11:49:54;;;;;;;2.53;0.80;;;15.40;99.90;;;;;;5077137;28;20419;-75
2022/07/01 11:52:21;;;;;;;1.40;0.60;;;15.30;99.90;;;;;;5082469;28;20439;-75
2022/07/01 11:54:49;;;;;;;1.47;0.70;;;15.30;99.90;;;;;;5084027;28;20427;-75
2022/07/01 11:57:16;;;;;;;1.80;0.73;;;15.50;99.90;;;;;;5090941;28;20500;-75
2022/07/01 11:59:43;;;;;;;1.63;0.70;;;15.70;99.90;;;;;;5086622;28;20482;-76
2022/07/01 12:02:11;;;;;;;2.23;0.70;;;16.00;99.90;;;;;;5082737;28;20446;-75
2022/07/01 12:04:38;;;;;;;2.30;0.70;;;16.40;99.90;;;;;;5087898;28;20461;-75
2022/07/01 12:07:05;;;;;;;1.60;0.60;;;16.60;99.90;;;;;;5086445;28;20415;-79
2022/07/01 12:09:31;;;;;;;2.03;1.03;;;16.60;99.90;;;;;;5086944;28;20443;-75
2022/07/01 12:11:57;;;;;;;9.17;1.00;;;16.50;99.90;;;;;;5087769;28;20458;-71
2022/07/01 12:14:34;;;;;;;3.70;1.03;;;16.50;99.90;;;;;;5086859;28;20194;-76
2022/07/01 12:17:03;;;;;;;2.60;0.90;;;16.40;99.90;;;;;;5085992;28;20177;-77
2022/07/01 12:19:37;;;;;;;1.93;0.90;;;16.40;99.90;;;;;;5080873;28;20429;-76
2022/07/01 12:22:06;;;;;;;2.00;0.70;;;16.40;99.90;;;;;;5080116;28;20936;-76
2022/07/01 12:24:32;;;;;;;1.60;0.50;;;16.40;99.90;;;;;;5081297;28;20454;-74
2022/07/01 12:26:57;;;;;;;1.60;0.60;;;16.40;99.90;;;;;;5080196;28;20415;-75
2022/07/01 12:29:26;;;;;;;1.50;0.60;;;16.40;99.90;;;;;;5072383;28;20238;-76
2022/07/01 12:32:00;;;;;;;1.90;0.90;;;16.40;99.90;;;;;;5078013;28;20185;-77
2022/07/01 12:34:54;;;;;;;1.70;0.80;;;16.40;99.90;;;;;;5078820;28;21112;-72
2022/07/01 12:37:33;;;;;;;1.73;0.70;;;16.50;99.90;;;;;;5083436;28;20572;-75
2022/07/01 12:40:05;;;;;;;3.20;1.00;;;16.70;99.90;;;;;;5082158;28;20403;-78
2022/07/01 12:42:42;;;;;;;1.40;0.60;;;16.80;99.90;;;;;;5077178;28;20538;-79
2022/07/01 12:45:11;;;;;;;1.50;0.60;;;17.10;99.90;;;;;;5075830;28;20592;-76
2022/07/01 12:47:42;;;;;;;1.70;0.90;;;17.30;99.90;;;;;;5084131;28;20456;-80
2022/07/01 12:50:22;;;;;;;4.47;0.83;;;17.40;99.90;;;;;;5073909;28;20419;-77
2022/07/01 12:53:03;;;;;;;1.40;0.70;;;17.40;99.90;;;;;;5082812;28;20434;-76
2022/07/01 12:55:31;;;;;;;3.57;0.80;;;17.50;99.90;;;;;;5079852;28;20415;-77
2022/07/01 12:58:00;;;;;;;3.73;0.80;;;17.60;99.90;;;;;;5082666;28;20410;-78
2022/07/01 13:00:27;;;;;;;1.63;0.67;;;17.60;99.90;;;;;;5083974;28;20817;-77
2022/07/01 13:02:58;;;;;;;2.33;0.70;;;17.50;99.90;;;;;;5082734;28;21327;-77
2022/07/01 13:05:24;;;;;;;2.07;0.90;;;17.60;99.90;;;;;;5087813;28;20418;-76